Lake Success — V7NO8 — position and weather

sailwx.info

Track history (hours):
 
Tides and Currents Weather Stations Pressure Air Temp Water Temp Dewpoint Dewpoint Depression Visibility Wind Speed Wind Dir Waves Ship Positions

Lake Success

Last reported at 2018-Jan-05 13:13 UTC. Time now 2018-Jan-21 03:12 UTC.
Position S 32°15' E 032°41'.
Warning: this ship's position is 15 days out of date.

Length 85 m; draft 4.8 m.

Type: Cargo ship. MMSI: 538002989.

Date/timePositionNaut miles runAvg speedWind from/ knotsBaromVisibWave heightAir tempDewpointWater temp
2018-Jan-05 13:13S 32°15' E 032°41'211.2
2018-Jan-05 13:00S 32°16' E 032°38'511.0
2018-Jan-05 12:30S 32°18' E 032°33'510.9
2018-Jan-05 12:00S 32°20' E 032°27'611.0
2018-Jan-05 11:30S 32°22' E 032°21'610.9
2018-Jan-05 11:00S 32°25' E 032°15'511.1
2018-Jan-05 10:30S 32°27' E 032°09'611.2
2018-Jan-05 09:56S 32°29' E 032°02'511.0
2018-Jan-05 09:28S 32°31' E 031°56'510.9
2018-Jan-05 09:00S 32°34' E 031°51'510.7
2018-Jan-05 08:30S 32°36' E 031°45'510.4
2018-Jan-05 08:00S 32°38' E 031°39'  
Track history (hours):
 
Tides and Currents Weather Stations Pressure Air Temp Water Temp Dewpoint Dewpoint Depression Visibility Wind Speed Wind Dir Waves Ship Positions

Lake Success

Last reported at 2018-Jan-05 13:13 UTC. Time now 2018-Jan-21 03:12 UTC.
Position S 32°15' E 032°41'.
Warning: this ship's position is 15 days out of date.

Length 85 m; draft 4.8 m.

Type: Cargo ship. MMSI: 538002989.

Date/timePositionNaut miles runAvg speedWind from/ knotsBaromVisibWave heightAir tempDewpointWater temp
2018-Jan-05 13:13S 32°15' E 032°41'211.2
2018-Jan-05 13:00S 32°16' E 032°38'511.0
2018-Jan-05 12:30S 32°18' E 032°33'510.9
2018-Jan-05 12:00S 32°20' E 032°27'611.0
2018-Jan-05 11:30S 32°22' E 032°21'610.9
2018-Jan-05 11:00S 32°25' E 032°15'511.1
2018-Jan-05 10:30S 32°27' E 032°09'611.2
2018-Jan-05 09:56S 32°29' E 032°02'511.0
2018-Jan-05 09:28S 32°31' E 031°56'510.9
2018-Jan-05 09:00S 32°34' E 031°51'510.7
2018-Jan-05 08:30S 32°36' E 031°45'510.4
2018-Jan-05 08:00S 32°38' E 031°39'  

Dump ship's entire track history